sensor_id;sensor_type;location;lat;lon;timestamp;P1;durP1;ratioP1;P2;durP2;ratioP2
45684;SDS011;46836;48.388;16.210;2022-09-30T00:00:56;3.67;;;3.38;;
45684;SDS011;46836;48.388;16.210;2022-09-30T00:03:24;4.20;;;3.40;;
45684;SDS011;46836;48.388;16.210;2022-09-30T00:05:55;4.15;;;3.75;;
45684;SDS011;46836;48.388;16.210;2022-09-30T00:08:33;6.03;;;3.60;;
45684;SDS011;46836;48.388;16.210;2022-09-30T00:11:03;5.03;;;3.03;;
45684;SDS011;46836;48.388;16.210;2022-09-30T00:13:33;3.65;;;3.35;;
45684;SDS011;46836;48.388;16.210;2022-09-30T00:16:03;4.40;;;4.00;;
45684;SDS011;46836;48.388;16.210;2022-09-30T00:18:30;3.95;;;3.60;;
45684;SDS011;46836;48.388;16.210;2022-09-30T00:20:58;6.05;;;3.60;;
45684;SDS011;46836;48.388;16.210;2022-09-30T00:23:25;4.05;;;3.65;;
45684;SDS011;46836;48.388;16.210;2022-09-30T00:25:57;4.30;;;3.35;;
45684;SDS011;46836;48.388;16.210;2022-09-30T00:28:28;5.38;;;4.43;;
45684;SDS011;46836;48.388;16.210;2022-09-30T00:30:59;3.97;;;3.58;;
45684;SDS011;46836;48.388;16.210;2022-09-30T00:33:28;4.65;;;3.78;;
45684;SDS011;46836;48.388;16.210;2022-09-30T00:35:55;4.20;;;3.80;;
45684;SDS011;46836;48.388;16.210;2022-09-30T00:38:22;8.60;;;3.80;;
45684;SDS011;46836;48.388;16.210;2022-09-30T00:40:49;5.15;;;4.40;;
45684;SDS011;46836;48.388;16.210;2022-09-30T00:43:19;4.70;;;4.22;;
45684;SDS011;46836;48.388;16.210;2022-09-30T00:46:08;5.15;;;3.70;;
45684;SDS011;46836;48.388;16.210;2022-09-30T00:49:11;4.95;;;4.53;;
45684;SDS011;46836;48.388;16.210;2022-09-30T00:51:48;6.60;;;4.40;;
45684;SDS011;46836;48.388;16.210;2022-09-30T00:54:27;4.90;;;4.32;;
45684;SDS011;46836;48.388;16.210;2022-09-30T00:56:57;5.00;;;4.50;;
45684;SDS011;46836;48.388;16.210;2022-09-30T00:59:31;4.28;;;3.88;;
45684;SDS011;46836;48.388;16.210;2022-09-30T01:02:04;5.30;;;4.25;;
45684;SDS011;46836;48.388;16.210;2022-09-30T01:04:32;8.95;;;4.50;;
45684;SDS011;46836;48.388;16.210;2022-09-30T01:07:02;6.10;;;4.18;;
45684;SDS011;46836;48.388;16.210;2022-09-30T01:09:32;4.47;;;4.07;;
45684;SDS011;46836;48.388;16.210;2022-09-30T01:12:02;6.45;;;3.67;;
45684;SDS011;46836;48.388;16.210;2022-09-30T01:14:34;4.30;;;3.90;;
45684;SDS011;46836;48.388;16.210;2022-09-30T01:22:27;5.45;;;4.18;;
45684;SDS011;46836;48.388;16.210;2022-09-30T01:30:55;5.00;;;4.07;;
45684;SDS011;46836;48.388;16.210;2022-09-30T01:41:49;5.97;;;4.88;;
45684;SDS011;46836;48.388;16.210;2022-09-30T01:47:24;5.63;;;4.65;;
45684;SDS011;46836;48.388;16.210;2022-09-30T01:50:02;4.53;;;4.00;;
45684;SDS011;46836;48.388;16.210;2022-09-30T01:55:31;5.15;;;4.55;;
45684;SDS011;46836;48.388;16.210;2022-09-30T01:58:52;5.20;;;4.63;;
45684;SDS011;46836;48.388;16.210;2022-09-30T02:00:53;5.53;;;4.18;;
45684;SDS011;46836;48.388;16.210;2022-09-30T02:06:07;5.57;;;4.72;;
45684;SDS011;46836;48.388;16.210;2022-09-30T02:08:40;4.65;;;4.25;;
45684;SDS011;46836;48.388;16.210;2022-09-30T02:16:41;5.38;;;4.35;;
45684;SDS011;46836;48.388;16.210;2022-09-30T02:19:28;5.38;;;4.20;;
45684;SDS011;46836;48.388;16.210;2022-09-30T02:22:00;4.75;;;4.30;;
45684;SDS011;46836;48.388;16.210;2022-09-30T02:24:33;4.70;;;4.18;;
45684;SDS011;46836;48.388;16.210;2022-09-30T02:27:06;4.65;;;4.25;;
45684;SDS011;46836;48.388;16.210;2022-09-30T02:29:40;5.57;;;4.35;;
45684;SDS011;46836;48.388;16.210;2022-09-30T02:32:17;6.47;;;4.53;;
45684;SDS011;46836;48.388;16.210;2022-09-30T02:34:54;5.80;;;4.60;;
45684;SDS011;46836;48.388;16.210;2022-09-30T02:37:38;6.10;;;4.75;;
45684;SDS011;46836;48.388;16.210;2022-09-30T02:40:23;5.07;;;4.57;;
45684;SDS011;46836;48.388;16.210;2022-09-30T02:42:56;4.40;;;4.00;;
45684;SDS011;46836;48.388;16.210;2022-09-30T02:45:24;5.00;;;4.20;;
45684;SDS011;46836;48.388;16.210;2022-09-30T02:48:05;5.25;;;4.75;;
45684;SDS011;46836;48.388;16.210;2022-09-30T02:50:48;4.95;;;4.40;;
45684;SDS011;46836;48.388;16.210;2022-09-30T02:53:25;5.63;;;4.80;;
45684;SDS011;46836;48.388;16.210;2022-09-30T02:59:19;5.90;;;4.40;;
45684;SDS011;46836;48.388;16.210;2022-09-30T03:01:49;5.85;;;5.15;;
45684;SDS011;46836;48.388;16.210;2022-09-30T03:04:29;5.10;;;4.60;;
45684;SDS011;46836;48.388;16.210;2022-09-30T03:07:01;5.45;;;4.95;;
45684;SDS011;46836;48.388;16.210;2022-09-30T03:09:33;5.97;;;5.13;;
45684;SDS011;46836;48.388;16.210;2022-09-30T03:12:07;6.45;;;5.10;;
45684;SDS011;46836;48.388;16.210;2022-09-30T03:14:59;6.60;;;5.90;;
45684;SDS011;46836;48.388;16.210;2022-09-30T03:18:01;6.10;;;4.25;;
45684;SDS011;46836;48.388;16.210;2022-09-30T03:20:44;6.20;;;5.40;;
45684;SDS011;46836;48.388;16.210;2022-09-30T03:26:17;5.18;;;4.60;;
45684;SDS011;46836;48.388;16.210;2022-09-30T03:29:16;6.70;;;5.53;;
45684;SDS011;46836;48.388;16.210;2022-09-30T03:34:58;7.72;;;5.47;;
45684;SDS011;46836;48.388;16.210;2022-09-30T03:46:02;4.65;;;4.20;;
45684;SDS011;46836;48.388;16.210;2022-09-30T03:48:37;5.93;;;3.78;;
45684;SDS011;46836;48.388;16.210;2022-09-30T03:51:06;7.57;;;4.55;;
45684;SDS011;46836;48.388;16.210;2022-09-30T03:53:42;5.07;;;4.15;;
45684;SDS011;46836;48.388;16.210;2022-09-30T03:56:13;4.70;;;4.00;;
45684;SDS011;46836;48.388;16.210;2022-09-30T03:58:44;5.78;;;4.45;;
45684;SDS011;46836;48.388;16.210;2022-09-30T04:01:16;5.78;;;4.28;;
45684;SDS011;46836;48.388;16.210;2022-09-30T04:03:48;5.00;;;4.50;;
45684;SDS011;46836;48.388;16.210;2022-09-30T04:06:20;5.90;;;4.00;;
45684;SDS011;46836;48.388;16.210;2022-09-30T04:08:50;7.90;;;4.75;;
45684;SDS011;46836;48.388;16.210;2022-09-30T04:11:22;6.78;;;5.10;;
45684;SDS011;46836;48.388;16.210;2022-09-30T04:13:49;8.50;;;4.75;;
45684;SDS011;46836;48.388;16.210;2022-09-30T04:16:17;10.23;;;5.45;;
45684;SDS011;46836;48.388;16.210;2022-09-30T04:18:44;4.90;;;4.35;;
45684;SDS011;46836;48.388;16.210;2022-09-30T04:21:12;9.48;;;5.22;;
45684;SDS011;46836;48.388;16.210;2022-09-30T04:23:41;5.68;;;4.88;;
45684;SDS011;46836;48.388;16.210;2022-09-30T04:26:10;7.20;;;5.30;;
45684;SDS011;46836;48.388;16.210;2022-09-30T04:28:40;5.68;;;5.10;;
45684;SDS011;46836;48.388;16.210;2022-09-30T04:31:09;6.07;;;5.53;;
45684;SDS011;46836;48.388;16.210;2022-09-30T04:33:40;7.40;;;6.18;;
45684;SDS011;46836;48.388;16.210;2022-09-30T04:36:07;11.32;;;7.57;;
45684;SDS011;46836;48.388;16.210;2022-09-30T04:38:37;42.15;;;22.55;;
45684;SDS011;46836;48.388;16.210;2022-09-30T04:41:05;13.57;;;8.68;;
45684;SDS011;46836;48.388;16.210;2022-09-30T04:43:36;10.10;;;8.30;;
45684;SDS011;46836;48.388;16.210;2022-09-30T04:46:07;7.80;;;7.00;;
45684;SDS011;46836;48.388;16.210;2022-09-30T04:48:38;6.88;;;6.18;;
45684;SDS011;46836;48.388;16.210;2022-09-30T04:51:08;7.72;;;6.25;;
45684;SDS011;46836;48.388;16.210;2022-09-30T04:53:37;6.28;;;5.70;;
45684;SDS011;46836;48.388;16.210;2022-09-30T04:56:05;6.55;;;5.90;;
45684;SDS011;46836;48.388;16.210;2022-09-30T04:58:33;8.23;;;6.30;;
45684;SDS011;46836;48.388;16.210;2022-09-30T05:01:07;6.57;;;5.80;;
45684;SDS011;46836;48.388;16.210;2022-09-30T05:03:36;6.68;;;5.97;;
45684;SDS011;46836;48.388;16.210;2022-09-30T05:06:04;10.57;;;6.35;;
45684;SDS011;46836;48.388;16.210;2022-09-30T05:08:39;12.30;;;6.25;;
45684;SDS011;46836;48.388;16.210;2022-09-30T05:11:13;13.23;;;6.70;;
45684;SDS011;46836;48.388;16.210;2022-09-30T05:13:45;11.63;;;7.13;;
45684;SDS011;46836;48.388;16.210;2022-09-30T05:16:14;13.82;;;6.78;;
45684;SDS011;46836;48.388;16.210;2022-09-30T05:18:42;8.25;;;7.25;;
45684;SDS011;46836;48.388;16.210;2022-09-30T05:21:13;16.83;;;8.30;;
45684;SDS011;46836;48.388;16.210;2022-09-30T05:23:41;12.68;;;7.85;;
45684;SDS011;46836;48.388;16.210;2022-09-30T05:26:08;7.07;;;6.32;;
45684;SDS011;46836;48.388;16.210;2022-09-30T05:28:38;10.40;;;8.60;;
45684;SDS011;46836;48.388;16.210;2022-09-30T05:31:06;10.45;;;8.52;;
45684;SDS011;46836;48.388;16.210;2022-09-30T05:33:34;9.88;;;8.43;;
45684;SDS011;46836;48.388;16.210;2022-09-30T05:36:03;8.93;;;7.97;;
45684;SDS011;46836;48.388;16.210;2022-09-30T05:38:32;9.93;;;8.07;;
45684;SDS011;46836;48.388;16.210;2022-09-30T05:41:07;9.88;;;8.25;;
45684;SDS011;46836;48.388;16.210;2022-09-30T05:43:40;9.07;;;8.05;;
45684;SDS011;46836;48.388;16.210;2022-09-30T05:46:14;11.00;;;8.68;;
45684;SDS011;46836;48.388;16.210;2022-09-30T05:48:42;9.95;;;8.05;;
45684;SDS011;46836;48.388;16.210;2022-09-30T05:51:10;12.20;;;9.77;;
45684;SDS011;46836;48.388;16.210;2022-09-30T05:53:38;9.88;;;8.75;;
45684;SDS011;46836;48.388;16.210;2022-09-30T05:56:06;10.25;;;8.88;;
45684;SDS011;46836;48.388;16.210;2022-09-30T05:58:35;10.65;;;9.43;;
45684;SDS011;46836;48.388;16.210;2022-09-30T06:01:04;10.27;;;9.15;;
45684;SDS011;46836;48.388;16.210;2022-09-30T06:03:38;13.90;;;9.07;;
45684;SDS011;46836;48.388;16.210;2022-09-30T06:06:08;14.35;;;9.30;;
45684;SDS011;46836;48.388;16.210;2022-09-30T06:08:35;10.80;;;9.30;;
45684;SDS011;46836;48.388;16.210;2022-09-30T06:11:06;13.25;;;10.45;;
45684;SDS011;46836;48.388;16.210;2022-09-30T06:13:37;11.65;;;9.18;;
45684;SDS011;46836;48.388;16.210;2022-09-30T06:16:06;14.70;;;12.15;;
45684;SDS011;46836;48.388;16.210;2022-09-30T06:18:35;12.38;;;10.00;;
45684;SDS011;46836;48.388;16.210;2022-09-30T06:21:06;13.82;;;10.80;;
45684;SDS011;46836;48.388;16.210;2022-09-30T06:23:37;20.90;;;12.88;;
45684;SDS011;46836;48.388;16.210;2022-09-30T06:26:05;16.58;;;11.55;;
45684;SDS011;46836;48.388;16.210;2022-09-30T06:28:34;16.55;;;11.98;;
45684;SDS011;46836;48.388;16.210;2022-09-30T06:31:02;15.50;;;10.95;;
45684;SDS011;46836;48.388;16.210;2022-09-30T06:33:30;12.48;;;9.80;;
45684;SDS011;46836;48.388;16.210;2022-09-30T06:35:58;9.93;;;8.93;;
45684;SDS011;46836;48.388;16.210;2022-09-30T06:38:30;16.73;;;9.45;;
45684;SDS011;46836;48.388;16.210;2022-09-30T06:40:59;10.40;;;9.30;;
45684;SDS011;46836;48.388;16.210;2022-09-30T06:43:27;11.18;;;8.73;;
45684;SDS011;46836;48.388;16.210;2022-09-30T06:45:54;12.63;;;9.30;;
45684;SDS011;46836;48.388;16.210;2022-09-30T06:48:39;9.20;;;8.23;;
45684;SDS011;46836;48.388;16.210;2022-09-30T06:51:06;10.68;;;9.05;;
45684;SDS011;46836;48.388;16.210;2022-09-30T06:53:36;10.75;;;8.52;;
45684;SDS011;46836;48.388;16.210;2022-09-30T06:56:05;10.13;;;8.38;;
45684;SDS011;46836;48.388;16.210;2022-09-30T06:58:32;10.10;;;8.02;;
45684;SDS011;46836;48.388;16.210;2022-09-30T07:01:04;10.65;;;8.85;;
45684;SDS011;46836;48.388;16.210;2022-09-30T07:03:33;11.50;;;8.00;;
45684;SDS011;46836;48.388;16.210;2022-09-30T07:06:02;12.70;;;8.85;;
45684;SDS011;46836;48.388;16.210;2022-09-30T07:08:31;10.00;;;7.15;;
45684;SDS011;46836;48.388;16.210;2022-09-30T07:11:01;8.70;;;7.82;;
45684;SDS011;46836;48.388;16.210;2022-09-30T07:13:31;9.43;;;7.50;;
45684;SDS011;46836;48.388;16.210;2022-09-30T07:15:59;10.00;;;7.35;;
45684;SDS011;46836;48.388;16.210;2022-09-30T07:18:27;8.43;;;6.93;;
45684;SDS011;46836;48.388;16.210;2022-09-30T07:20:54;9.65;;;7.70;;
45684;SDS011;46836;48.388;16.210;2022-09-30T07:23:23;9.57;;;7.30;;
45684;SDS011;46836;48.388;16.210;2022-09-30T07:25:54;10.75;;;8.20;;
45684;SDS011;46836;48.388;16.210;2022-09-30T07:28:25;13.13;;;8.43;;
45684;SDS011;46836;48.388;16.210;2022-09-30T07:30:58;9.80;;;8.80;;
45684;SDS011;46836;48.388;16.210;2022-09-30T07:33:48;9.60;;;7.57;;
45684;SDS011;46836;48.388;16.210;2022-09-30T07:36:19;8.88;;;7.85;;
45684;SDS011;46836;48.388;16.210;2022-09-30T07:38:58;11.50;;;7.10;;
45684;SDS011;46836;48.388;16.210;2022-09-30T07:41:32;9.70;;;7.72;;
45684;SDS011;46836;48.388;16.210;2022-09-30T07:44:02;10.63;;;7.43;;
45684;SDS011;46836;48.388;16.210;2022-09-30T07:46:34;7.88;;;7.05;;
45684;SDS011;46836;48.388;16.210;2022-09-30T07:49:06;9.40;;;7.15;;
45684;SDS011;46836;48.388;16.210;2022-09-30T07:51:38;7.50;;;6.20;;
45684;SDS011;46836;48.388;16.210;2022-09-30T07:54:11;9.35;;;8.02;;
45684;SDS011;46836;48.388;16.210;2022-09-30T07:56:41;10.10;;;7.50;;
45684;SDS011;46836;48.388;16.210;2022-09-30T07:59:31;8.38;;;7.53;;
45684;SDS011;46836;48.388;16.210;2022-09-30T08:02:01;8.00;;;7.20;;
45684;SDS011;46836;48.388;16.210;2022-09-30T08:04:29;8.27;;;7.20;;
45684;SDS011;46836;48.388;16.210;2022-09-30T08:06:58;10.88;;;8.70;;
45684;SDS011;46836;48.388;16.210;2022-09-30T08:09:27;8.38;;;7.57;;
45684;SDS011;46836;48.388;16.210;2022-09-30T08:11:56;9.40;;;8.35;;
45684;SDS011;46836;48.388;16.210;2022-09-30T08:14:25;11.05;;;8.18;;
45684;SDS011;46836;48.388;16.210;2022-09-30T08:16:53;8.88;;;7.95;;
45684;SDS011;46836;48.388;16.210;2022-09-30T08:19:26;8.77;;;7.85;;
45684;SDS011;46836;48.388;16.210;2022-09-30T08:21:56;8.10;;;7.30;;
45684;SDS011;46836;48.388;16.210;2022-09-30T08:24:24;13.52;;;8.20;;
45684;SDS011;46836;48.388;16.210;2022-09-30T08:26:52;7.38;;;6.30;;
45684;SDS011;46836;48.388;16.210;2022-09-30T08:29:20;16.58;;;7.85;;
45684;SDS011;46836;48.388;16.210;2022-09-30T08:32:07;9.18;;;6.85;;
45684;SDS011;46836;48.388;16.210;2022-09-30T08:34:35;8.95;;;7.55;;
45684;SDS011;46836;48.388;16.210;2022-09-30T08:37:03;8.32;;;7.47;;
45684;SDS011;46836;48.388;16.210;2022-09-30T08:39:34;8.57;;;7.68;;
45684;SDS011;46836;48.388;16.210;2022-09-30T08:42:09;9.60;;;7.35;;
45684;SDS011;46836;48.388;16.210;2022-09-30T08:45:33;13.88;;;7.55;;
45684;SDS011;46836;48.388;16.210;2022-09-30T08:51:15;8.63;;;7.72;;
45684;SDS011;46836;48.388;16.210;2022-09-30T08:53:46;8.35;;;7.10;;
45684;SDS011;46836;48.388;16.210;2022-09-30T08:56:22;9.70;;;7.18;;
45684;SDS011;46836;48.388;16.210;2022-09-30T08:58:57;9.55;;;7.55;;
45684;SDS011;46836;48.388;16.210;2022-09-30T09:01:38;10.55;;;7.72;;
45684;SDS011;46836;48.388;16.210;2022-09-30T09:04:10;9.30;;;7.20;;
45684;SDS011;46836;48.388;16.210;2022-09-30T09:06:57;9.77;;;7.53;;
45684;SDS011;46836;48.388;16.210;2022-09-30T09:10:00;8.55;;;7.63;;
45684;SDS011;46836;48.388;16.210;2022-09-30T09:12:36;8.40;;;7.22;;
45684;SDS011;46836;48.388;16.210;2022-09-30T09:15:38;7.70;;;6.82;;
45684;SDS011;46836;48.388;16.210;2022-09-30T09:18:32;6.53;;;5.90;;
45684;SDS011;46836;48.388;16.210;2022-09-30T09:23:59;7.10;;;5.93;;
45684;SDS011;46836;48.388;16.210;2022-09-30T09:26:29;10.05;;;7.68;;
45684;SDS011;46836;48.388;16.210;2022-09-30T09:29:05;8.27;;;6.85;;
45684;SDS011;46836;48.388;16.210;2022-09-30T09:31:48;9.48;;;6.43;;
45684;SDS011;46836;48.388;16.210;2022-09-30T09:34:15;10.45;;;6.93;;
45684;SDS011;46836;48.388;16.210;2022-09-30T09:45:00;7.70;;;6.90;;
45684;SDS011;46836;48.388;16.210;2022-09-30T09:47:33;11.43;;;8.05;;
45684;SDS011;46836;48.388;16.210;2022-09-30T09:50:00;8.00;;;7.10;;
45684;SDS011;46836;48.388;16.210;2022-09-30T09:52:37;9.63;;;7.35;;
45684;SDS011;46836;48.388;16.210;2022-09-30T09:55:28;19.48;;;8.57;;
45684;SDS011;46836;48.388;16.210;2022-09-30T09:58:06;9.10;;;6.47;;
45684;SDS011;46836;48.388;16.210;2022-09-30T10:00:42;7.82;;;7.03;;
45684;SDS011;46836;48.388;16.210;2022-09-30T10:03:35;15.02;;;7.20;;
45684;SDS011;46836;48.388;16.210;2022-09-30T10:08:39;9.02;;;6.40;;
45684;SDS011;46836;48.388;16.210;2022-09-30T10:11:20;8.07;;;6.10;;
45684;SDS011;46836;48.388;16.210;2022-09-30T10:13:55;8.18;;;6.30;;
45684;SDS011;46836;48.388;16.210;2022-09-30T10:16:26;7.90;;;7.10;;
45684;SDS011;46836;48.388;16.210;2022-09-30T10:18:57;8.50;;;6.50;;
45684;SDS011;46836;48.388;16.210;2022-09-30T10:21:26;13.20;;;7.32;;
45684;SDS011;46836;48.388;16.210;2022-09-30T10:23:55;14.45;;;7.40;;
45684;SDS011;46836;48.388;16.210;2022-09-30T10:26:26;10.23;;;7.25;;
45684;SDS011;46836;48.388;16.210;2022-09-30T10:28:55;8.15;;;6.53;;
45684;SDS011;46836;48.388;16.210;2022-09-30T10:31:30;7.13;;;5.43;;
45684;SDS011;46836;48.388;16.210;2022-09-30T10:36:52;7.25;;;5.40;;
45684;SDS011;46836;48.388;16.210;2022-09-30T10:42:04;7.45;;;5.35;;
45684;SDS011;46836;48.388;16.210;2022-09-30T10:44:41;7.72;;;5.60;;
45684;SDS011;46836;48.388;16.210;2022-09-30T10:47:10;5.97;;;5.38;;
45684;SDS011;46836;48.388;16.210;2022-09-30T10:49:47;7.00;;;5.50;;
45684;SDS011;46836;48.388;16.210;2022-09-30T10:52:26;10.00;;;6.00;;
45684;SDS011;46836;48.388;16.210;2022-09-30T10:54:57;6.10;;;5.30;;
45684;SDS011;46836;48.388;16.210;2022-09-30T10:57:31;9.02;;;5.40;;
45684;SDS011;46836;48.388;16.210;2022-09-30T11:00:13;6.50;;;5.35;;
45684;SDS011;46836;48.388;16.210;2022-09-30T11:08:21;6.07;;;5.38;;
45684;SDS011;46836;48.388;16.210;2022-09-30T11:20:34;7.53;;;4.70;;
45684;SDS011;46836;48.388;16.210;2022-09-30T11:23:39;5.60;;;5.03;;
45684;SDS011;46836;48.388;16.210;2022-09-30T11:30:03;5.05;;;4.40;;
45684;SDS011;46836;48.388;16.210;2022-09-30T11:42:53;5.03;;;4.25;;
45684;SDS011;46836;48.388;16.210;2022-09-30T11:46:07;3.85;;;3.45;;
45684;SDS011;46836;48.388;16.210;2022-09-30T11:53:01;6.97;;;3.73;;
45684;SDS011;46836;48.388;16.210;2022-09-30T11:56:57;4.20;;;3.80;;
45684;SDS011;46836;48.388;16.210;2022-09-30T12:00:39;4.30;;;3.90;;
45684;SDS011;46836;48.388;16.210;2022-09-30T12:07:21;4.60;;;3.70;;
45684;SDS011;46836;48.388;16.210;2022-09-30T12:10:55;4.70;;;3.47;;
45684;SDS011;46836;48.388;16.210;2022-09-30T12:14:42;6.23;;;3.30;;
45684;SDS011;46836;48.388;16.210;2022-09-30T12:17:25;3.77;;;3.40;;
45684;SDS011;46836;48.388;16.210;2022-09-30T12:21:02;3.13;;;2.83;;
45684;SDS011;46836;48.388;16.210;2022-09-30T12:24:41;3.70;;;3.40;;
45684;SDS011;46836;48.388;16.210;2022-09-30T13:12:45;3.90;;;3.40;;
45684;SDS011;46836;48.388;16.210;2022-09-30T13:19:00;2.87;;;2.67;;
45684;SDS011;46836;48.388;16.210;2022-09-30T13:23:05;3.37;;;3.07;;
45684;SDS011;46836;48.388;16.210;2022-09-30T13:29:32;3.33;;;3.03;;
45684;SDS011;46836;48.388;16.210;2022-09-30T13:32:32;2.67;;;2.47;;
45684;SDS011;46836;48.388;16.210;2022-09-30T13:36:18;3.17;;;2.07;;
45684;SDS011;46836;48.388;16.210;2022-09-30T13:42:20;4.00;;;2.27;;
45684;SDS011;46836;48.388;16.210;2022-09-30T13:46:05;2.47;;;2.20;;
45684;SDS011;46836;48.388;16.210;2022-09-30T13:49:13;16.67;;;4.20;;
45684;SDS011;46836;48.388;16.210;2022-09-30T13:53:05;3.70;;;2.27;;
45684;SDS011;46836;48.388;16.210;2022-09-30T13:57:01;2.37;;;2.17;;
45684;SDS011;46836;48.388;16.210;2022-09-30T14:07:30;2.03;;;1.83;;
45684;SDS011;46836;48.388;16.210;2022-09-30T14:13:04;2.60;;;2.30;;
45684;SDS011;46836;48.388;16.210;2022-09-30T14:25:47;2.70;;;2.17;;
45684;SDS011;46836;48.388;16.210;2022-09-30T14:33:34;1.67;;;1.57;;
45684;SDS011;46836;48.388;16.210;2022-09-30T14:35:46;3.43;;;2.13;;
45684;SDS011;46836;48.388;16.210;2022-09-30T14:38:34;1.87;;;1.70;;
45684;SDS011;46836;48.388;16.210;2022-09-30T14:41:06;2.30;;;2.10;;
45684;SDS011;46836;48.388;16.210;2022-09-30T14:43:42;2.90;;;1.87;;
45684;SDS011;46836;48.388;16.210;2022-09-30T14:49:08;1.97;;;1.87;;
45684;SDS011;46836;48.388;16.210;2022-09-30T14:51:48;2.10;;;1.90;;
45684;SDS011;46836;48.388;16.210;2022-09-30T14:54:19;1.80;;;1.70;;
45684;SDS011;46836;48.388;16.210;2022-09-30T14:56:57;1.60;;;1.50;;
45684;SDS011;46836;48.388;16.210;2022-09-30T14:59:37;2.30;;;1.87;;
45684;SDS011;46836;48.388;16.210;2022-09-30T15:02:11;1.70;;;1.60;;
45684;SDS011;46836;48.388;16.210;2022-09-30T15:04:50;1.87;;;1.60;;
45684;SDS011;46836;48.388;16.210;2022-09-30T15:07:35;1.77;;;1.67;;
45684;SDS011;46836;48.388;16.210;2022-09-30T15:10:16;3.93;;;1.63;;
45684;SDS011;46836;48.388;16.210;2022-09-30T15:12:52;1.80;;;1.70;;
45684;SDS011;46836;48.388;16.210;2022-09-30T15:18:23;2.10;;;1.90;;
45684;SDS011;46836;48.388;16.210;2022-09-30T15:21:09;2.40;;;2.20;;
45684;SDS011;46836;48.388;16.210;2022-09-30T15:23:57;1.73;;;1.63;;
45684;SDS011;46836;48.388;16.210;2022-09-30T15:26:34;2.37;;;1.90;;
45684;SDS011;46836;48.388;16.210;2022-09-30T15:29:08;2.20;;;2.00;;
45684;SDS011;46836;48.388;16.210;2022-09-30T15:31:41;2.80;;;2.40;;
45684;SDS011;46836;48.388;16.210;2022-09-30T15:34:20;2.23;;;2.03;;
45684;SDS011;46836;48.388;16.210;2022-09-30T15:37:02;3.27;;;2.40;;
45684;SDS011;46836;48.388;16.210;2022-09-30T15:39:40;5.00;;;2.70;;
45684;SDS011;46836;48.388;16.210;2022-09-30T15:48:34;2.30;;;2.10;;
45684;SDS011;46836;48.388;16.210;2022-09-30T15:53:18;4.73;;;2.37;;
45684;SDS011;46836;48.388;16.210;2022-09-30T15:55:55;2.50;;;2.30;;
45684;SDS011;46836;48.388;16.210;2022-09-30T16:01:11;3.97;;;2.90;;
45684;SDS011;46836;48.388;16.210;2022-09-30T16:08:58;2.70;;;2.40;;
45684;SDS011;46836;48.388;16.210;2022-09-30T16:11:39;3.63;;;2.40;;
45684;SDS011;46836;48.388;16.210;2022-09-30T16:14:16;3.80;;;2.90;;
45684;SDS011;46836;48.388;16.210;2022-09-30T16:16:50;2.93;;;2.63;;
45684;SDS011;46836;48.388;16.210;2022-09-30T16:19:20;3.73;;;3.10;;
45684;SDS011;46836;48.388;16.210;2022-09-30T16:21:52;2.90;;;2.60;;
45684;SDS011;46836;48.388;16.210;2022-09-30T16:26:57;2.92;;;2.50;;
45684;SDS011;46836;48.388;16.210;2022-09-30T16:29:44;4.65;;;3.60;;
45684;SDS011;46836;48.388;16.210;2022-09-30T16:32:12;3.00;;;2.60;;
45684;SDS011;46836;48.388;16.210;2022-09-30T16:34:39;3.63;;;3.30;;
45684;SDS011;46836;48.388;16.210;2022-09-30T16:37:10;4.20;;;3.80;;
45684;SDS011;46836;48.388;16.210;2022-09-30T16:39:45;3.33;;;3.03;;
45684;SDS011;46836;48.388;16.210;2022-09-30T16:42:13;3.20;;;2.90;;
45684;SDS011;46836;48.388;16.210;2022-09-30T16:44:42;2.80;;;2.60;;
45684;SDS011;46836;48.388;16.210;2022-09-30T16:47:14;4.27;;;2.73;;
45684;SDS011;46836;48.388;16.210;2022-09-30T16:49:44;3.87;;;2.80;;
45684;SDS011;46836;48.388;16.210;2022-09-30T16:52:16;5.78;;;3.17;;
45684;SDS011;46836;48.388;16.210;2022-09-30T16:54:46;5.43;;;3.73;;
45684;SDS011;46836;48.388;16.210;2022-09-30T16:57:16;5.63;;;3.50;;
45684;SDS011;46836;48.388;16.210;2022-09-30T16:59:46;5.00;;;3.17;;
45684;SDS011;46836;48.388;16.210;2022-09-30T17:02:13;4.95;;;3.20;;
45684;SDS011;46836;48.388;16.210;2022-09-30T17:04:46;4.05;;;3.13;;
45684;SDS011;46836;48.388;16.210;2022-09-30T17:07:13;3.72;;;3.40;;
45684;SDS011;46836;48.388;16.210;2022-09-30T17:09:41;3.35;;;2.78;;
45684;SDS011;46836;48.388;16.210;2022-09-30T17:12:11;3.10;;;2.80;;
45684;SDS011;46836;48.388;16.210;2022-09-30T17:14:41;3.10;;;2.80;;
45684;SDS011;46836;48.388;16.210;2022-09-30T17:17:09;5.00;;;3.00;;
45684;SDS011;46836;48.388;16.210;2022-09-30T17:19:39;2.88;;;2.65;;
45684;SDS011;46836;48.388;16.210;2022-09-30T17:22:17;3.27;;;2.97;;
45684;SDS011;46836;48.388;16.210;2022-09-30T17:24:47;6.63;;;2.97;;
45684;SDS011;46836;48.388;16.210;2022-09-30T17:27:17;3.03;;;2.60;;
45684;SDS011;46836;48.388;16.210;2022-09-30T17:29:47;3.08;;;2.78;;
45684;SDS011;46836;48.388;16.210;2022-09-30T17:32:19;3.22;;;2.85;;
45684;SDS011;46836;48.388;16.210;2022-09-30T17:34:54;3.20;;;2.90;;
45684;SDS011;46836;48.388;16.210;2022-09-30T17:37:22;5.10;;;4.28;;
45684;SDS011;46836;48.388;16.210;2022-09-30T17:39:49;3.58;;;3.28;;
45684;SDS011;46836;48.388;16.210;2022-09-30T17:42:22;3.05;;;2.75;;
45684;SDS011;46836;48.388;16.210;2022-09-30T17:45:08;3.67;;;3.38;;
45684;SDS011;46836;48.388;16.210;2022-09-30T17:47:38;3.88;;;3.53;;
45684;SDS011;46836;48.388;16.210;2022-09-30T17:50:11;4.22;;;3.83;;
45684;SDS011;46836;48.388;16.210;2022-09-30T17:52:41;4.60;;;3.70;;
45684;SDS011;46836;48.388;16.210;2022-09-30T17:55:09;4.63;;;3.65;;
45684;SDS011;46836;48.388;16.210;2022-09-30T17:57:39;9.80;;;4.10;;
45684;SDS011;46836;48.388;16.210;2022-09-30T18:00:06;6.30;;;5.60;;
45684;SDS011;46836;48.388;16.210;2022-09-30T18:02:34;8.70;;;5.80;;
45684;SDS011;46836;48.388;16.210;2022-09-30T18:05:04;6.93;;;6.22;;
45684;SDS011;46836;48.388;16.210;2022-09-30T18:07:39;7.75;;;6.95;;
45684;SDS011;46836;48.388;16.210;2022-09-30T18:10:07;10.30;;;8.30;;
45684;SDS011;46836;48.388;16.210;2022-09-30T18:12:36;9.55;;;7.55;;
45684;SDS011;46836;48.388;16.210;2022-09-30T18:15:04;11.77;;;8.55;;
45684;SDS011;46836;48.388;16.210;2022-09-30T18:17:32;11.55;;;7.47;;
45684;SDS011;46836;48.388;16.210;2022-09-30T18:20:03;9.27;;;7.68;;
45684;SDS011;46836;48.388;16.210;2022-09-30T18:22:38;7.22;;;6.53;;
45684;SDS011;46836;48.388;16.210;2022-09-30T18:25:09;9.63;;;7.40;;
45684;SDS011;46836;48.388;16.210;2022-09-30T18:27:50;8.50;;;6.97;;
45684;SDS011;46836;48.388;16.210;2022-09-30T18:30:25;7.65;;;5.70;;
45684;SDS011;46836;48.388;16.210;2022-09-30T18:32:53;8.52;;;6.53;;
45684;SDS011;46836;48.388;16.210;2022-09-30T18:35:24;10.93;;;7.38;;
45684;SDS011;46836;48.388;16.210;2022-09-30T18:37:55;7.95;;;6.20;;
45684;SDS011;46836;48.388;16.210;2022-09-30T18:40:24;5.75;;;5.13;;
45684;SDS011;46836;48.388;16.210;2022-09-30T18:42:54;6.82;;;5.78;;
45684;SDS011;46836;48.388;16.210;2022-09-30T18:45:28;6.63;;;5.30;;
45684;SDS011;46836;48.388;16.210;2022-09-30T18:48:06;6.70;;;4.90;;
45684;SDS011;46836;48.388;16.210;2022-09-30T18:50:37;7.50;;;5.50;;
45684;SDS011;46836;48.388;16.210;2022-09-30T18:53:09;6.55;;;5.47;;
45684;SDS011;46836;48.388;16.210;2022-09-30T18:55:40;5.18;;;4.70;;
45684;SDS011;46836;48.388;16.210;2022-09-30T18:58:10;7.23;;;4.70;;
45684;SDS011;46836;48.388;16.210;2022-09-30T19:00:38;5.55;;;4.60;;